createdAt,value
2019-04-14T00:00:49.485Z,22.55
2019-04-14T00:03:34.746Z,19.92
2019-04-14T00:06:06.859Z,25.43
2019-04-14T00:08:37.213Z,21.62
2019-04-14T00:11:06.157Z,23.32
2019-04-14T00:13:34.988Z,20.75
2019-04-14T00:16:03.553Z,25.35
2019-04-14T00:18:32.228Z,23.25
2019-04-14T00:21:00.540Z,22.75
2019-04-14T00:23:30.365Z,22.70
2019-04-14T00:26:31.632Z,23.10
2019-04-14T00:29:00.277Z,20.50
2019-04-14T00:31:30.926Z,23.42
2019-04-14T00:34:09.298Z,21.73
2019-04-14T00:36:43.758Z,23.70
2019-04-14T00:39:20.484Z,19.05
2019-04-14T00:41:54.962Z,19.07
2019-04-14T00:44:41.056Z,19.07
2019-04-14T00:47:17.980Z,20.92
2019-04-14T00:49:46.628Z,17.02
2019-04-14T00:52:15.361Z,17.23
2019-04-14T00:54:43.993Z,17.00
2019-04-14T00:57:13.680Z,17.85
2019-04-14T00:59:42.202Z,21.45
2019-04-14T01:02:10.898Z,17.10
2019-04-14T01:04:40.413Z,22.10
2019-04-14T01:07:09.158Z,21.23
2019-04-14T01:09:37.745Z,19.87
2019-04-14T01:12:06.449Z,21.12
2019-04-14T01:14:35.120Z,20.82
2019-04-14T01:17:04.786Z,20.60
2019-04-14T01:19:33.352Z,18.87
2019-04-14T01:22:03.110Z,21.05
2019-04-14T01:24:31.893Z,19.90
2019-04-14T01:27:00.213Z,20.25
2019-04-14T01:29:29.752Z,22.73
2019-04-14T01:31:58.393Z,22.42
2019-04-14T01:34:28.098Z,21.95
2019-04-14T01:36:56.649Z,23.80
2019-04-14T01:39:26.414Z,20.88
2019-04-14T01:41:56.322Z,21.70
2019-04-14T01:44:26.322Z,17.45
2019-04-14T01:46:55.014Z,22.15
2019-04-14T01:49:24.720Z,22.70
2019-04-14T01:52:12.407Z,25.80
2019-04-14T01:54:45.734Z,25.37
2019-04-14T01:57:16.121Z,27.58
2019-04-14T02:00:07.537Z,21.75
2019-04-14T02:02:36.341Z,20.35
2019-04-14T02:05:05.966Z,22.55
2019-04-14T02:07:34.528Z,23.38
2019-04-14T02:10:03.975Z,22.45
2019-04-14T02:12:32.640Z,20.50
2019-04-14T02:15:02.867Z,25.85
2019-04-14T02:17:32.720Z,22.95
2019-04-14T02:20:03.337Z,20.73
2019-04-14T02:22:33.354Z,22.98
2019-04-14T02:25:21.241Z,23.97
2019-04-14T02:27:49.869Z,22.35
2019-04-14T02:30:23.039Z,21.02
2019-04-14T02:33:17.209Z,22.93
2019-04-14T02:35:47.128Z,15.43
2019-04-14T02:38:31.060Z,23.57
2019-04-14T02:41:07.374Z,22.90
2019-04-14T02:43:23.687Z,28.17
2019-04-14T02:45:50.113Z,23.18
2019-04-14T02:48:31.794Z,24.20
2019-04-14T02:50:48.219Z,21.48
2019-04-14T02:55:49.136Z,21.07
2019-04-14T02:58:20.342Z,22.42
2019-04-14T03:00:48.707Z,21.23
2019-04-14T03:03:25.722Z,21.65
2019-04-14T03:05:53.238Z,20.43
2019-04-14T03:10:47.521Z,15.75
2019-04-14T03:16:15.245Z,24.27
2019-04-14T03:21:14.759Z,28.85
2019-04-14T03:23:40.604Z,27.90
2019-04-14T03:26:15.338Z,24.72
2019-04-14T03:29:13.151Z,22.02
2019-04-14T03:31:52.684Z,23.92
2019-04-14T03:34:12.977Z,22.48
2019-04-14T03:36:58.289Z,21.90
2019-04-14T03:38:59.943Z,24.43
2019-04-14T03:43:46.356Z,23.67
2019-04-14T03:48:57.971Z,24.75
2019-04-14T03:51:36.986Z,28.40
2019-04-14T03:53:53.164Z,30.20
2019-04-14T03:56:07.719Z,18.02
2019-04-14T03:58:34.260Z,26.75
2019-04-14T04:01:02.563Z,25.60
2019-04-14T04:03:32.407Z,24.02
2019-04-14T04:06:01.151Z,24.77
2019-04-14T04:08:29.465Z,24.05
2019-04-14T04:10:59.985Z,25.50
2019-04-14T04:13:28.456Z,23.10
2019-04-14T04:15:58.756Z,26.57
2019-04-14T04:18:28.804Z,21.42
2019-04-14T04:21:05.263Z,22.20
2019-04-14T04:23:42.449Z,29.00
2019-04-14T04:26:12.844Z,29.45
2019-04-14T04:28:49.676Z,26.20
2019-04-14T04:31:20.099Z,25.52
2019-04-14T04:34:09.555Z,30.45
2019-04-14T04:36:59.489Z,28.65
2019-04-14T04:39:30.176Z,29.40
2019-04-14T04:41:59.034Z,29.57
2019-04-14T04:44:27.733Z,25.00
2019-04-14T04:46:56.964Z,31.45
2019-04-14T04:49:27.665Z,24.80
2019-04-14T04:51:55.850Z,27.55
2019-04-14T04:54:25.640Z,30.90
2019-04-14T04:56:54.437Z,27.33
2019-04-14T04:59:23.489Z,26.30
2019-04-14T05:01:52.212Z,28.35
2019-04-14T05:04:20.544Z,30.45
2019-04-14T05:06:57.417Z,27.90
2019-04-14T05:09:38.857Z,26.23
2019-04-14T05:12:15.720Z,28.65
2019-04-14T05:15:01.392Z,25.97
2019-04-14T05:17:34.377Z,26.50
2019-04-14T05:20:03.272Z,31.15
2019-04-14T05:22:33.165Z,29.20
2019-04-14T05:25:01.974Z,18.93
2019-04-14T05:27:30.354Z,27.67
2019-04-14T05:29:58.934Z,26.57
2019-04-14T05:32:28.364Z,31.37
2019-04-14T05:34:57.141Z,31.40
2019-04-14T05:37:26.788Z,28.35
2019-04-14T05:39:55.304Z,27.17
2019-04-14T05:42:25.643Z,34.75
2019-04-14T05:44:53.909Z,31.90
2019-04-14T05:47:22.290Z,32.53
2019-04-14T05:49:53.438Z,30.43
2019-04-14T05:52:21.217Z,33.00
2019-04-14T05:54:49.917Z,28.45
2019-04-14T05:57:19.773Z,33.83
2019-04-14T05:59:48.488Z,33.35
2019-04-14T06:02:17.727Z,29.72
2019-04-14T06:04:46.678Z,32.55
2019-04-14T06:07:14.993Z,36.48
2019-04-14T06:09:43.642Z,35.15
2019-04-14T06:12:12.337Z,35.50
2019-04-14T06:14:40.633Z,33.67
2019-04-14T06:17:09.277Z,32.50
2019-04-14T06:19:40.629Z,36.05
2019-04-14T06:22:08.402Z,34.80
2019-04-14T06:24:37.144Z,39.92
2019-04-14T06:27:05.760Z,37.90
2019-04-14T06:29:34.464Z,44.53
2019-04-14T06:32:05.597Z,45.17
2019-04-14T06:34:36.762Z,41.75
2019-04-14T06:37:15.672Z,39.27
2019-04-14T06:39:46.828Z,41.25
2019-04-14T06:42:15.132Z,42.17
2019-04-14T06:44:44.609Z,47.38
2019-04-14T06:47:13.265Z,42.62
2019-04-14T06:49:48.736Z,46.33
2019-04-14T06:52:12.343Z,38.10
2019-04-14T06:54:40.970Z,43.90
2019-04-14T06:57:09.656Z,45.43
2019-04-14T06:59:38.359Z,39.30
2019-04-14T07:02:08.651Z,42.17
2019-04-14T07:04:37.364Z,44.65
2019-04-14T07:07:06.038Z,50.28
2019-04-14T07:09:34.896Z,42.80
2019-04-14T07:12:03.441Z,45.03
2019-04-14T07:14:32.205Z,41.20
2019-04-14T07:17:00.820Z,42.67
2019-04-14T07:19:29.510Z,45.52
2019-04-14T07:21:58.156Z,43.78
2019-04-14T07:24:26.567Z,41.70
2019-04-14T07:26:55.119Z,39.15
2019-04-14T07:29:25.132Z,45.85
2019-04-14T07:34:36.369Z,42.23
2019-04-14T07:37:06.507Z,42.63
2019-04-14T07:39:45.404Z,28.03
2019-04-14T07:42:21.093Z,39.50
2019-04-14T07:44:53.929Z,42.33
2019-04-14T07:47:24.361Z,37.45
2019-04-14T07:49:54.653Z,41.58
2019-04-14T07:52:33.675Z,36.50
2019-04-14T07:55:06.493Z,34.83
2019-04-14T07:57:53.274Z,36.65
2019-04-14T08:00:23.394Z,37.42
2019-04-14T08:02:53.360Z,32.93
2019-04-14T08:05:23.645Z,36.88
2019-04-14T08:07:52.405Z,36.53
2019-04-14T08:10:20.997Z,37.30
2019-04-14T08:12:49.375Z,30.15
2019-04-14T08:15:17.976Z,29.95
2019-04-14T08:17:46.284Z,31.20
2019-04-14T08:20:26.777Z,30.50
2019-04-14T08:22:45.257Z,29.23
2019-04-14T08:25:13.592Z,26.62
2019-04-14T08:27:42.231Z,29.48
2019-04-14T08:30:10.540Z,34.95
2019-04-14T08:32:39.176Z,29.72
2019-04-14T08:35:07.480Z,33.35
2019-04-14T08:37:35.799Z,37.40
2019-04-14T08:40:04.657Z,34.60
2019-04-14T08:42:40.846Z,36.70
2019-04-14T08:45:10.885Z,40.12
2019-04-14T08:47:51.958Z,39.40
2019-04-14T08:53:09.709Z,43.73
2019-04-14T08:55:45.916Z,45.93
2019-04-14T08:58:16.138Z,41.13
2019-04-14T09:00:58.436Z,47.65
2019-04-14T09:03:46.713Z,43.08
2019-04-14T09:06:16.980Z,40.15
2019-04-14T09:09:02.381Z,42.43
2019-04-14T09:11:44.584Z,35.63
2019-04-14T09:14:32.414Z,36.38
2019-04-14T09:17:00.932Z,35.55
2019-04-14T09:19:29.623Z,39.45
2019-04-14T09:21:58.255Z,33.80
2019-04-14T09:24:26.994Z,34.63
2019-04-14T09:26:55.681Z,35.70
2019-04-14T09:29:24.351Z,38.88
2019-04-14T09:31:53.002Z,36.25
2019-04-14T09:34:21.688Z,36.53
2019-04-14T09:36:50.377Z,37.67
2019-04-14T09:39:19.037Z,37.05
2019-04-14T09:41:47.752Z,39.65
2019-04-14T09:44:16.408Z,40.63
2019-04-14T09:46:45.119Z,41.95
2019-04-14T09:49:13.792Z,41.53
2019-04-14T09:51:42.561Z,40.65
2019-04-14T09:54:11.156Z,41.80
2019-04-14T09:56:39.485Z,40.45
2019-04-14T09:59:08.117Z,39.20
2019-04-14T10:01:36.809Z,43.55
2019-04-14T10:04:05.543Z,40.20
2019-04-14T10:06:34.189Z,44.23
2019-04-14T10:09:03.525Z,37.98
2019-04-14T10:11:31.966Z,36.42
2019-04-14T10:14:00.646Z,35.60
2019-04-14T10:16:29.006Z,35.75
2019-04-14T10:18:57.673Z,33.33
2019-04-14T10:21:26.345Z,35.95
2019-04-14T10:23:54.972Z,35.60
2019-04-14T10:26:23.309Z,41.00
2019-04-14T10:28:52.027Z,36.70
2019-04-14T10:31:20.337Z,38.95
2019-04-14T10:33:48.895Z,42.10
2019-04-14T10:36:17.262Z,39.90
2019-04-14T10:38:45.916Z,42.05
2019-04-14T10:41:14.557Z,45.67
2019-04-14T10:43:42.902Z,43.65
2019-04-14T10:46:11.511Z,37.25
2019-04-14T10:48:40.305Z,40.63
2019-04-14T10:51:09.025Z,38.65
2019-04-14T10:53:37.680Z,36.42
2019-04-14T10:56:06.356Z,44.60
2019-04-14T10:58:35.225Z,41.75
2019-04-14T11:01:03.881Z,44.40
2019-04-14T11:03:32.431Z,37.55
2019-04-14T11:06:05.714Z,37.98
2019-04-14T11:08:34.324Z,38.20
2019-04-14T11:11:02.973Z,44.30
2019-04-14T11:13:32.080Z,39.35
2019-04-14T11:16:00.453Z,42.03
2019-04-14T11:18:29.081Z,46.53
2019-04-14T11:20:57.705Z,50.08
2019-04-14T11:23:26.456Z,47.25
2019-04-14T11:25:55.159Z,51.85
2019-04-14T11:28:23.810Z,43.75
2019-04-14T11:30:52.533Z,50.78
2019-04-14T11:33:22.813Z,47.38
2019-04-14T11:35:53.223Z,46.53
2019-04-14T11:38:23.609Z,46.85
2019-04-14T11:40:53.765Z,42.20
2019-04-14T11:43:22.430Z,45.73
2019-04-14T11:45:51.212Z,44.93
2019-04-14T11:48:19.827Z,39.90
2019-04-14T11:50:48.524Z,40.83
2019-04-14T11:53:17.190Z,37.28
2019-04-14T11:55:45.881Z,38.73
2019-04-14T11:58:14.677Z,41.68
2019-04-14T12:01:01.949Z,43.00
2019-04-14T12:03:48.512Z,39.20
2019-04-14T12:06:27.472Z,38.08
2019-04-14T12:09:00.590Z,40.75
2019-04-14T12:11:29.265Z,39.25
2019-04-14T12:13:57.869Z,39.15
2019-04-14T12:16:26.236Z,39.53
2019-04-14T12:18:54.833Z,44.38
2019-04-14T12:21:23.149Z,42.43
2019-04-14T12:23:51.868Z,38.60
2019-04-14T12:26:20.493Z,38.17
2019-04-14T12:28:49.357Z,42.33
2019-04-14T12:31:18.045Z,41.83
2019-04-14T12:33:46.545Z,38.17
2019-04-14T12:36:15.000Z,37.95
2019-04-14T12:38:43.490Z,36.13
2019-04-14T12:41:13.454Z,36.75
2019-04-14T12:43:43.801Z,39.07
2019-04-14T12:46:30.421Z,37.35
2019-04-14T12:49:15.544Z,33.38
2019-04-14T12:51:54.981Z,37.13
2019-04-14T12:54:24.410Z,40.75
2019-04-14T12:56:53.222Z,45.60
2019-04-14T12:59:23.619Z,36.40
2019-04-14T13:02:05.884Z,33.35
2019-04-14T13:04:34.193Z,32.83
2019-04-14T13:07:02.696Z,34.98
2019-04-14T13:09:31.484Z,34.65
2019-04-14T13:12:00.091Z,35.10
2019-04-14T13:14:28.693Z,36.80
2019-04-14T13:16:57.480Z,33.40
2019-04-14T13:19:26.069Z,33.88
2019-04-14T13:21:54.760Z,38.15
2019-04-14T13:24:23.434Z,36.60
2019-04-14T13:26:52.137Z,38.53
2019-04-14T13:29:20.840Z,34.45
2019-04-14T13:31:49.487Z,31.07
2019-04-14T13:34:18.197Z,37.50
2019-04-14T13:36:46.847Z,33.60
2019-04-14T13:39:15.560Z,31.62
2019-04-14T13:41:44.279Z,33.67
2019-04-14T13:44:13.009Z,35.95
2019-04-14T13:46:41.692Z,35.15
2019-04-14T13:49:10.300Z,34.83
2019-04-14T13:51:38.972Z,38.80
2019-04-14T13:54:07.680Z,36.95
2019-04-14T13:56:36.473Z,37.48
2019-04-14T13:59:05.059Z,35.92
2019-04-14T14:01:33.708Z,37.05
2019-04-14T14:04:02.409Z,38.35
2019-04-14T14:06:31.075Z,42.93
2019-04-14T14:08:59.800Z,45.80
2019-04-14T14:11:36.149Z,45.23
2019-04-14T14:14:06.169Z,49.58
2019-04-14T14:16:45.545Z,52.07
2019-04-14T14:19:15.836Z,52.20
2019-04-14T14:22:02.611Z,49.45
2019-04-14T14:24:33.836Z,51.68
2019-04-14T14:27:03.833Z,50.33
2019-04-14T14:29:32.322Z,52.57
2019-04-14T14:32:02.581Z,48.17
2019-04-14T14:34:30.894Z,54.70
2019-04-14T14:36:59.557Z,46.80
2019-04-14T14:39:29.806Z,47.65
2019-04-14T14:42:00.241Z,52.55
2019-04-14T14:44:34.710Z,51.92
2019-04-14T14:47:06.102Z,48.55
2019-04-14T14:49:54.276Z,54.20
2019-04-14T14:52:22.960Z,53.85
2019-04-14T14:54:51.785Z,53.20
2019-04-14T14:57:20.241Z,57.85
2019-04-14T14:59:49.061Z,54.70
2019-04-14T15:02:17.541Z,48.40
2019-04-14T15:04:45.908Z,50.98
2019-04-14T15:07:14.782Z,54.08
2019-04-14T15:09:43.452Z,55.12
2019-04-14T15:12:13.213Z,53.80
2019-04-14T15:14:41.940Z,54.98
2019-04-14T15:17:10.657Z,53.13
2019-04-14T15:19:38.965Z,46.23
2019-04-14T15:22:07.642Z,54.35
2019-04-14T15:24:36.212Z,55.67
2019-04-14T15:27:04.977Z,49.20
2019-04-14T15:29:33.736Z,50.92
2019-04-14T15:32:02.353Z,53.48
2019-04-14T15:34:30.964Z,49.60
2019-04-14T15:36:59.645Z,47.00
2019-04-14T15:39:28.324Z,51.35
2019-04-14T15:41:57.110Z,52.43
2019-04-14T15:44:25.713Z,47.95
2019-04-14T15:46:54.406Z,45.40
2019-04-14T15:49:23.605Z,47.70
2019-04-14T15:51:52.204Z,47.25
2019-04-14T15:54:20.897Z,51.83
2019-04-14T15:57:07.498Z,49.75
2019-04-14T15:59:43.424Z,56.00
2019-04-14T16:02:19.393Z,56.60
2019-04-14T16:05:23.814Z,55.38
2019-04-14T16:07:56.625Z,52.25
2019-04-14T16:10:26.705Z,57.53
2019-04-14T16:13:05.890Z,59.20
2019-04-14T16:15:38.890Z,60.55
2019-04-14T16:18:09.170Z,52.62
2019-04-14T16:20:39.452Z,53.83
2019-04-14T16:23:07.773Z,53.68
2019-04-14T16:25:40.861Z,56.28
2019-04-14T16:28:10.912Z,55.55
2019-04-14T16:30:57.449Z,54.42
2019-04-14T16:33:30.469Z,53.85
2019-04-14T16:35:59.577Z,50.95
2019-04-14T16:38:28.124Z,53.55
2019-04-14T16:40:57.625Z,57.90
2019-04-14T16:43:26.583Z,56.33
2019-04-14T16:45:54.993Z,56.33
2019-04-14T16:48:23.310Z,50.65
2019-04-14T16:50:52.097Z,58.75
2019-04-14T16:53:22.273Z,54.58
2019-04-14T16:55:55.359Z,54.42
2019-04-14T16:58:26.554Z,53.83
2019-04-14T17:00:59.561Z,54.75
2019-04-14T17:03:28.069Z,50.03
2019-04-14T17:05:56.438Z,49.93
2019-04-14T17:08:25.133Z,55.55
2019-04-14T17:10:53.836Z,51.98
2019-04-14T17:13:24.285Z,55.67
2019-04-14T17:16:09.704Z,56.10
2019-04-14T17:18:39.980Z,54.60
2019-04-14T17:21:22.099Z,56.05
2019-04-14T17:23:52.146Z,53.78
2019-04-14T17:26:31.477Z,55.88
2019-04-14T17:29:01.768Z,52.98
2019-04-14T17:31:34.845Z,60.08
2019-04-14T17:34:13.980Z,53.73
2019-04-14T17:36:47.218Z,52.50
2019-04-14T17:39:17.360Z,56.80
2019-04-14T17:41:53.693Z,53.63
2019-04-14T17:44:23.739Z,51.80
2019-04-14T17:47:12.177Z,54.03
2019-04-14T17:49:42.567Z,50.95
2019-04-14T17:52:30.949Z,57.03
2019-04-14T17:55:06.826Z,55.08
2019-04-14T17:57:55.303Z,52.70
2019-04-14T18:00:28.475Z,54.18
2019-04-14T18:03:17.401Z,53.65
2019-04-14T18:06:03.914Z,52.30
2019-04-14T18:08:34.197Z,52.78
2019-04-14T18:11:04.476Z,51.10
2019-04-14T18:13:50.817Z,54.08
2019-04-14T18:16:21.076Z,55.12
2019-04-14T18:19:09.235Z,49.58
2019-04-14T18:21:37.708Z,50.17
2019-04-14T18:24:06.025Z,49.93
2019-04-14T18:26:35.204Z,50.08
2019-04-14T18:29:22.019Z,52.23
2019-04-14T18:32:07.708Z,52.48
2019-04-14T18:34:40.571Z,52.58
2019-04-14T18:37:10.806Z,53.45
2019-04-14T18:39:44.313Z,53.85
2019-04-14T18:42:20.187Z,55.78
2019-04-14T18:45:06.856Z,57.60
2019-04-14T18:47:53.430Z,57.67
2019-04-14T18:50:23.353Z,54.67
2019-04-14T18:53:05.904Z,57.00
2019-04-14T18:55:41.865Z,52.15
2019-04-14T18:58:28.760Z,55.58
2019-04-14T19:00:58.714Z,51.10
2019-04-14T19:03:27.368Z,54.20
2019-04-14T19:05:56.022Z,48.85
2019-04-14T19:08:24.789Z,54.25
2019-04-14T19:11:04.033Z,55.20
2019-04-14T19:13:34.111Z,54.25
2019-04-14T19:16:07.397Z,53.65
2019-04-14T19:18:37.592Z,53.08
2019-04-14T19:21:08.733Z,57.62
2019-04-14T19:23:37.417Z,55.60
2019-04-14T19:26:06.640Z,54.77
2019-04-14T19:28:35.185Z,59.73
2019-04-14T19:31:03.924Z,56.48
2019-04-14T19:33:32.572Z,59.03
2019-04-14T19:36:01.262Z,55.28
2019-04-14T19:38:30.005Z,56.77
2019-04-14T19:40:58.637Z,56.90
2019-04-14T19:43:27.314Z,52.55
2019-04-14T19:45:56.702Z,60.43
2019-04-14T19:48:25.503Z,59.73
2019-04-14T19:50:54.304Z,57.53
2019-04-14T19:53:22.948Z,58.95
2019-04-14T19:55:51.637Z,58.08
2019-04-14T19:58:20.245Z,58.55
2019-04-14T20:00:49.085Z,57.03
2019-04-14T20:03:17.606Z,56.35
2019-04-14T20:05:46.448Z,58.30
2019-04-14T20:08:14.751Z,57.88
2019-04-14T20:10:43.282Z,58.70
2019-04-14T20:13:12.001Z,59.50
2019-04-14T20:15:54.216Z,60.15
2019-04-14T20:18:42.471Z,61.68
2019-04-14T20:21:30.920Z,60.33
2019-04-14T20:24:17.329Z,63.63
2019-04-14T20:26:49.945Z,60.50
2019-04-14T20:29:20.302Z,59.15
2019-04-14T20:31:50.686Z,59.00
2019-04-14T20:34:19.248Z,58.83
2019-04-14T20:36:47.569Z,57.98
2019-04-14T20:39:16.789Z,56.50
2019-04-14T20:41:45.322Z,66.30
2019-04-14T20:44:14.173Z,57.38
2019-04-14T20:46:42.781Z,57.98
2019-04-14T20:49:11.550Z,67.17
2019-04-14T20:51:40.050Z,61.42
2019-04-14T20:54:08.753Z,55.80
2019-04-14T20:56:37.408Z,62.67
2019-04-14T20:59:05.785Z,69.35
2019-04-14T21:01:36.012Z,64.82
2019-04-14T21:04:18.308Z,65.67
2019-04-14T21:06:51.427Z,82.40
2019-04-14T21:09:21.497Z,73.10
2019-04-14T21:11:54.437Z,71.60
2019-04-14T21:14:27.341Z,74.50
2019-04-14T21:17:06.759Z,70.45
2019-04-14T21:19:37.058Z,67.53
2019-04-14T21:22:16.343Z,75.95
2019-04-14T21:24:48.373Z,75.05
2019-04-14T21:27:24.509Z,67.62
2019-04-14T21:30:06.524Z,64.62
2019-04-14T21:32:36.581Z,72.08
2019-04-14T21:35:07.248Z,68.55
2019-04-14T21:37:46.664Z,66.05
2019-04-14T21:40:25.677Z,67.03
2019-04-14T21:42:54.212Z,75.45
2019-04-14T21:45:26.033Z,79.42
2019-04-14T21:47:53.228Z,75.22
2019-04-14T21:50:21.922Z,79.30
2019-04-14T21:52:50.690Z,77.05
2019-04-14T21:55:20.504Z,70.72
2019-04-14T21:57:50.840Z,83.70
2019-04-14T22:00:24.427Z,84.05
2019-04-14T22:03:09.844Z,76.42
2019-04-14T22:05:42.621Z,77.58
2019-04-14T22:08:15.594Z,77.25
2019-04-14T22:10:57.602Z,84.28
2019-04-14T22:13:25.997Z,78.17
2019-04-14T22:15:54.646Z,79.72
2019-04-14T22:18:23.340Z,78.62
2019-04-14T22:20:52.070Z,71.85
2019-04-14T22:23:20.800Z,74.85
2019-04-14T22:25:49.375Z,78.57
2019-04-14T22:28:17.762Z,78.12
2019-04-14T22:30:46.337Z,78.95
2019-04-14T22:33:14.659Z,71.47
2019-04-14T22:35:43.307Z,72.47
2019-04-14T22:38:11.643Z,72.95
2019-04-14T22:40:40.669Z,67.47
2019-04-14T22:43:09.373Z,61.15
2019-04-14T22:45:38.051Z,70.67
2019-04-14T22:48:06.819Z,65.10
2019-04-14T22:50:35.521Z,77.50
2019-04-14T22:53:04.108Z,84.80
2019-04-14T22:55:32.573Z,81.85
2019-04-14T22:58:01.069Z,78.87
2019-04-14T23:00:47.245Z,74.47
2019-04-14T23:03:17.289Z,80.92
2019-04-14T23:05:53.812Z,82.82
2019-04-14T23:08:24.085Z,81.87
2019-04-14T23:11:12.196Z,73.22
2019-04-14T23:13:51.276Z,69.47
2019-04-14T23:16:24.025Z,67.55
2019-04-14T23:19:02.645Z,72.95
2019-04-14T23:21:41.655Z,75.17
2019-04-14T23:24:15.453Z,68.25
2019-04-14T23:26:52.410Z,67.65
2019-04-14T23:29:33.613Z,73.90
2019-04-14T23:32:02.250Z,75.55
2019-04-14T23:34:30.933Z,78.12
2019-04-14T23:36:59.597Z,72.12
2019-04-14T23:39:28.690Z,70.55
2019-04-14T23:41:57.376Z,70.25
2019-04-14T23:44:26.056Z,70.95
2019-04-14T23:46:54.746Z,75.97
2019-04-14T23:49:23.434Z,69.92
2019-04-14T23:51:52.116Z,71.67
2019-04-14T23:54:20.804Z,69.65
2019-04-14T23:56:49.502Z,74.35
2019-04-14T23:59:18.168Z,68.75
